Time;durP1;ratioP1;P1;durP2;ratioP2;P2;SDS_P1;SDS_P2;PMS_P1;PMS_P2;Temp;Humidity;BMP_temperature;BMP_pressure;BME280_temperature;BME280_humidity;BME280_pressure;Samples;Min_cycle;Max_cycle;Signal;HPM_P1;HPM_P2
2021/11/27 00:01:44;;;;;;;19.58;12.52;;;;;;;1.33;100.00;95766.81;10386924;28;20046;-80
2021/11/27 00:06:50;;;;;;;18.17;12.23;;;;;;;1.34;100.00;95761.34;10437165;28;20042;-80
2021/11/27 00:11:53;;;;;;;18.90;11.90;;;;;;;1.35;100.00;95743.63;10404369;28;20037;-79
2021/11/27 00:16:57;;;;;;;16.55;10.48;;;;;;;1.35;100.00;95740.97;10404754;28;20456;-77
2021/11/27 00:22:00;;;;;;;18.98;11.77;;;;;;;1.38;100.00;95736.13;10403375;28;20065;-75
2021/11/27 00:27:03;;;;;;;17.52;10.77;;;;;;;1.38;100.00;95727.34;10403368;28;20046;-77
2021/11/27 00:32:09;;;;;;;17.60;10.40;;;;;;;1.36;100.00;95726.66;10401443;28;20117;-75
2021/11/27 00:37:12;;;;;;;16.30;10.35;;;;;;;1.39;100.00;95721.03;10395010;28;20060;-76
2021/11/27 00:42:15;;;;;;;15.82;9.30;;;;;;;1.44;100.00;95716.06;10379260;28;20455;-76
2021/11/27 00:47:20;;;;;;;14.68;9.43;;;;;;;1.45;100.00;95720.38;10374979;28;20049;-77
2021/11/27 00:52:23;;;;;;;14.85;9.70;;;;;;;1.44;100.00;95704.59;10379457;28;20092;-76
2021/11/27 00:57:27;;;;;;;16.17;10.00;;;;;;;1.44;100.00;95699.28;10376887;28;20046;-76
2021/11/27 01:02:32;;;;;;;16.42;9.95;;;;;;;1.43;100.00;95698.47;10383743;28;20402;-76
2021/11/27 01:07:40;;;;;;;16.42;9.98;;;;;;;1.45;100.00;95696.50;10378777;28;20077;-75
2021/11/27 01:12:45;;;;;;;14.85;9.55;;;;;;;1.47;100.00;95694.47;10383080;28;20044;-76
2021/11/27 01:17:52;;;;;;;14.90;9.45;;;;;;;1.57;100.00;95691.63;10384813;28;20042;-75
2021/11/27 01:22:56;;;;;;;15.93;9.40;;;;;;;1.63;100.00;95687.44;10361906;28;20865;-76
2021/11/27 01:28:00;;;;;;;15.18;9.45;;;;;;;1.71;100.00;95682.09;10378829;28;20076;-78
2021/11/27 01:33:05;;;;;;;18.00;10.00;;;;;;;1.71;100.00;95687.41;10374658;28;20049;-81
2021/11/27 01:38:10;;;;;;;15.77;9.93;;;;;;;1.76;100.00;95673.63;10378281;28;20137;-82
2021/11/27 01:43:14;;;;;;;16.92;10.05;;;;;;;1.77;100.00;95673.44;10386570;28;20463;-77
2021/11/27 01:48:20;;;;;;;15.50;9.70;;;;;;;1.78;100.00;95666.31;10381285;28;20037;-78
2021/11/27 01:53:25;;;;;;;15.45;10.18;;;;;;;1.79;100.00;95654.69;10382346;28;20037;-77
2021/11/27 01:58:30;;;;;;;16.02;10.98;;;;;;;1.71;100.00;95657.41;10372620;28;20048;-79
2021/11/27 02:03:36;;;;;;;17.10;10.98;;;;;;;1.71;100.00;95660.06;10375302;28;20045;-80
2021/11/27 02:08:53;;;;;;;15.68;10.63;;;;;;;1.67;100.00;95651.63;10363199;28;20051;-77
2021/11/27 02:13:58;;;;;;;15.70;10.25;;;;;;;1.66;100.00;95634.84;10365188;28;20140;-77
2021/11/27 02:19:04;;;;;;;15.50;10.40;;;;;;;1.61;100.00;95642.53;10379300;28;20048;-78
2021/11/27 02:24:08;;;;;;;16.52;10.35;;;;;;;1.56;100.00;95650.16;10382887;28;20058;-76
2021/11/27 02:29:16;;;;;;;15.75;10.60;;;;;;;1.52;100.00;95638.28;10382889;28;20045;-79
2021/11/27 02:34:20;;;;;;;17.80;11.45;;;;;;;1.46;100.00;95639.78;10368281;28;20037;-76
2021/11/27 02:39:25;;;;;;;16.83;11.10;;;;;;;1.40;100.00;95645.78;10371475;28;20617;-76
2021/11/27 02:44:33;;;;;;;18.02;11.18;;;;;;;1.37;100.00;95643.44;10364984;28;20038;-80
2021/11/27 02:49:38;;;;;;;16.40;11.27;;;;;;;1.34;100.00;95641.16;10405772;28;20461;-77
2021/11/27 02:54:43;;;;;;;17.83;11.60;;;;;;;1.33;100.00;95650.13;10373568;28;20410;-78
2021/11/27 02:59:49;;;;;;;18.45;11.52;;;;;;;1.30;100.00;95650.44;10374768;28;20052;-78
2021/11/27 03:04:53;;;;;;;17.58;11.73;;;;;;;1.29;100.00;95639.03;10374964;28;21377;-77
2021/11/27 03:09:58;;;;;;;19.55;12.50;;;;;;;1.32;100.00;95637.84;10362065;28;20034;-77
2021/11/27 03:15:04;;;;;;;17.40;11.40;;;;;;;1.31;100.00;95621.09;10369487;28;20050;-77
2021/11/27 03:20:09;;;;;;;19.38;12.13;;;;;;;1.31;100.00;95629.06;10375649;28;20479;-77
2021/11/27 03:25:15;;;;;;;18.75;12.10;;;;;;;1.33;100.00;95628.91;10357805;28;20480;-80
2021/11/27 03:30:21;;;;;;;17.73;12.25;;;;;;;1.33;100.00;95631.56;10359156;28;20046;-81
2021/11/27 03:35:29;;;;;;;19.30;12.65;;;;;;;1.34;100.00;95631.38;10360492;28;20446;-77
2021/11/27 03:40:37;;;;;;;18.98;12.40;;;;;;;1.35;100.00;95633.03;10373634;28;20054;-76
2021/11/27 03:45:40;;;;;;;21.42;12.82;;;;;;;1.34;100.00;95635.88;10355647;28;20053;-80
2021/11/27 03:50:47;;;;;;;21.77;13.63;;;;;;;1.32;100.00;95633.38;10374234;28;20056;-75
2021/11/27 03:55:53;;;;;;;20.55;13.57;;;;;;;1.36;100.00;95624.06;10376949;28;20371;-76
2021/11/27 04:00:57;;;;;;;22.75;14.48;;;;;;;1.39;100.00;95628.19;10357866;28;20806;-76
2021/11/27 04:06:02;;;;;;;23.52;14.65;;;;;;;1.37;100.00;95620.44;10358048;28;20557;-75
2021/11/27 04:11:08;;;;;;;23.67;15.23;;;;;;;1.45;100.00;95627.53;10358932;28;20136;-76
2021/11/27 04:16:12;;;;;;;26.70;16.85;;;;;;;1.47;100.00;95625.50;10369769;28;20145;-78
2021/11/27 04:21:18;;;;;;;25.45;16.67;;;;;;;1.51;100.00;95621.50;10374976;28;20147;-78
2021/11/27 04:26:24;;;;;;;26.80;17.02;;;;;;;1.52;100.00;95620.50;10382320;28;20626;-80
2021/11/27 04:31:27;;;;;;;26.33;17.65;;;;;;;1.51;100.00;95621.50;10366674;28;20034;-76
2021/11/27 04:36:32;;;;;;;28.00;17.73;;;;;;;1.51;100.00;95621.50;10366733;28;20073;-80
2021/11/27 04:41:36;;;;;;;25.92;17.55;;;;;;;1.50;100.00;95616.38;10399167;28;20058;-78
2021/11/27 04:46:39;;;;;;;28.00;17.85;;;;;;;1.49;100.00;95626.16;10386205;28;20575;-82
2021/11/27 04:51:43;;;;;;;26.83;17.90;;;;;;;1.49;100.00;95639.41;10384194;28;20488;-79
2021/11/27 04:56:49;;;;;;;28.30;17.63;;;;;;;1.47;100.00;95630.81;10407488;28;20615;-79
2021/11/27 05:01:52;;;;;;;26.90;17.30;;;;;;;1.50;100.00;95641.06;10387730;28;20054;-78
2021/11/27 05:06:55;;;;;;;25.83;17.05;;;;;;;1.50;100.00;95643.72;10410279;28;20547;-76
2021/11/27 05:12:00;;;;;;;26.60;16.20;;;;;;;1.51;100.00;95645.38;10390457;28;20038;-76
2021/11/27 05:17:05;;;;;;;26.75;16.70;;;;;;;1.51;100.00;95637.41;10393563;28;20048;-79
2021/11/27 05:22:11;;;;;;;27.50;16.20;;;;;;;1.52;100.00;95644.38;10404983;28;21485;-80
2021/11/27 05:28:04;;;;;;;22.73;15.60;;;;;;;1.56;100.00;95638.75;10396870;28;20049;-78
2021/11/27 05:33:46;;;;;;;22.65;15.68;;;;;;;1.56;100.00;95654.66;10436247;28;20072;-77
2021/11/27 05:38:50;;;;;;;22.60;15.23;;;;;;;1.59;100.00;95655.13;10395529;28;20132;-80
2021/11/27 05:43:53;;;;;;;22.85;15.70;;;;;;;1.59;100.00;95659.63;10376175;28;20026;-78
2021/11/27 05:48:59;;;;;;;24.83;16.17;;;;;;;1.54;100.00;95668.06;10373361;28;20538;-79
2021/11/27 05:54:32;;;;;;;24.27;15.48;;;;;;;1.49;100.00;95671.25;10368926;28;20050;-78
2021/11/27 05:59:35;;;;;;;24.20;14.85;;;;;;;1.49;100.00;95673.09;10358960;28;20065;-79
2021/11/27 06:04:41;;;;;;;22.05;14.80;;;;;;;1.49;100.00;95663.28;10373529;28;20413;-78
2021/11/27 06:09:44;;;;;;;23.08;14.75;;;;;;;1.48;100.00;95666.94;10372005;28;20140;-79
2021/11/27 06:14:47;;;;;;;24.05;15.93;;;;;;;1.49;100.00;95676.56;10372604;28;20052;-79
2021/11/27 06:19:52;;;;;;;23.20;14.98;;;;;;;1.48;100.00;95690.81;10374953;28;20044;-79
2021/11/27 06:24:55;;;;;;;20.20;13.80;;;;;;;1.49;100.00;95689.81;10377108;28;20033;-77
2021/11/27 06:29:58;;;;;;;23.17;15.45;;;;;;;1.50;100.00;95688.81;10356803;28;20506;-82
2021/11/27 06:35:02;;;;;;;21.67;14.48;;;;;;;1.52;100.00;95692.13;10375861;28;20047;-79
2021/11/27 06:40:07;;;;;;;23.45;14.98;;;;;;;1.52;100.00;95678.88;10398269;28;20076;-77
2021/11/27 06:45:19;;;;;;;;;;;;;;;1.48;100.00;95685.50;10405445;28;20055;-77
2021/11/27 06:50:40;;;;;;;22.80;15.15;;;;;;;1.48;100.00;95701.44;10386959;28;19927;-78
2021/11/27 06:55:43;;;;;;;23.15;14.90;;;;;;;1.51;100.00;95705.59;10403425;28;20049;-77
2021/11/27 07:00:46;;;;;;;21.25;14.60;;;;;;;1.51;100.00;95701.09;10399393;28;21434;-76
2021/11/27 07:06:22;;;;;;;20.52;14.43;;;;;;;1.56;100.00;95707.72;10401870;28;20041;-79
2021/11/27 07:11:25;;;;;;;22.40;15.02;;;;;;;1.59;100.00;95712.69;10382226;28;20095;-76
2021/11/27 07:16:28;;;;;;;22.27;15.07;;;;;;;1.60;100.00;95707.22;10381941;28;20049;-79
2021/11/27 07:21:33;;;;;;;22.33;15.07;;;;;;;1.62;100.00;95712.31;10399595;28;20051;-78
2021/11/27 07:26:36;;;;;;;22.02;15.55;;;;;;;1.62;100.00;95697.25;10397311;28;20045;-78
2021/11/27 07:31:44;;;;;;;22.70;15.00;;;;;;;1.62;100.00;95713.16;10384801;28;20055;-78
2021/11/27 07:36:48;;;;;;;22.25;15.85;;;;;;;1.66;100.00;95719.78;10398006;28;20057;-78
2021/11/27 07:41:51;;;;;;;23.08;15.55;;;;;;;1.68;100.00;95719.63;10392862;28;20533;-78
2021/11/27 07:47:04;;;;;;;21.33;15.57;;;;;;;1.71;100.00;95721.91;10395469;28;20041;-78
2021/11/27 07:52:37;;;;;;;22.55;15.65;;;;;;;1.75;100.00;95728.53;10395828;28;20049;-78
2021/11/27 07:57:40;;;;;;;22.63;15.75;;;;;;;1.79;100.00;95739.63;10399783;28;20158;-78
2021/11/27 08:02:43;;;;;;;24.83;16.20;;;;;;;1.84;100.00;95743.41;10401912;28;20045;-78
2021/11/27 08:07:47;;;;;;;20.45;14.88;;;;;;;1.91;100.00;95745.41;10407106;28;20056;-79
2021/11/27 08:12:51;;;;;;;19.90;14.57;;;;;;;1.94;100.00;95737.09;10394881;28;20048;-78
2021/11/27 08:17:54;;;;;;;22.27;15.18;;;;;;;2.01;100.00;95743.34;10439442;28;20050;-78
2021/11/27 08:22:58;;;;;;;23.35;15.35;;;;;;;2.07;100.00;95726.69;10383436;28;20091;-80
2021/11/27 08:28:02;;;;;;;21.38;15.23;;;;;;;2.12;100.00;95737.66;10403127;28;20047;-78
2021/11/27 08:33:06;;;;;;;22.98;15.70;;;;;;;2.20;100.00;95730.63;10402950;28;20361;-78
2021/11/27 08:38:10;;;;;;;20.98;14.93;;;;;;;2.28;100.00;95728.75;10381100;28;20041;-80
2021/11/27 08:43:13;;;;;;;19.52;13.98;;;;;;;2.38;100.00;95719.72;10374189;28;20038;-78
2021/11/27 08:48:16;;;;;;;17.75;12.95;;;;;;;2.52;100.00;95726.13;10373510;28;20049;-79
2021/11/27 08:53:23;;;;;;;19.05;13.55;;;;;;;2.62;100.00;95735.47;10355739;28;20572;-79
2021/11/27 08:58:26;;;;;;;16.13;12.30;;;;;;;2.76;100.00;95731.22;10369738;28;20438;-78
2021/11/27 09:03:30;;;;;;;14.35;11.18;;;;;;;2.96;100.00;95735.22;10373350;28;20041;-78
2021/11/27 09:08:36;;;;;;;15.95;11.68;;;;;;;3.30;100.00;95726.75;10349309;28;20049;-78
2021/11/27 09:13:40;;;;;;;14.07;10.85;;;;;;;3.38;100.00;95728.50;10351443;28;21275;-76
2021/11/27 09:18:44;;;;;;;13.77;10.10;;;;;;;3.45;100.00;95733.91;10358721;28;20049;-76
2021/11/27 09:23:49;;;;;;;14.57;10.73;;;;;;;3.61;100.00;95733.72;10360411;28;20046;-79
2021/11/27 09:28:52;;;;;;;15.00;10.20;;;;;;;3.64;100.00;95732.53;10373883;28;20030;-79
2021/11/27 09:33:56;;;;;;;13.30;9.68;;;;;;;3.67;100.00;95737.47;10358772;28;20049;-80
2021/11/27 09:39:00;;;;;;;13.13;9.65;;;;;;;3.66;100.00;95741.16;10389700;28;20045;-81
2021/11/27 09:44:10;;;;;;;12.75;10.05;;;;;;;3.74;100.00;95742.91;10404225;28;20061;-81
2021/11/27 09:49:20;;;;;;;12.85;9.80;;;;;;;3.79;100.00;95753.84;10400497;28;20045;-77
2021/11/27 09:54:25;;;;;;;12.13;9.52;;;;;;;3.84;100.00;95752.25;10399209;28;20108;-81
2021/11/27 09:59:28;;;;;;;10.77;8.98;;;;;;;3.81;100.00;95757.13;10401047;28;20061;-82
2021/11/27 10:04:34;;;;;;;10.93;8.52;;;;;;;3.76;100.00;95756.84;10383100;28;20055;-82
2021/11/27 10:09:39;;;;;;;10.20;7.95;;;;;;;3.67;100.00;95770.28;10395602;28;20124;-82
2021/11/27 10:14:43;;;;;;;10.10;8.15;;;;;;;3.66;100.00;95771.28;10382904;28;20501;-81
2021/11/27 10:19:49;;;;;;;9.90;7.85;;;;;;;3.63;100.00;95760.16;10397769;28;20057;-81
2021/11/27 10:24:54;;;;;;;10.85;8.68;;;;;;;3.65;100.00;95772.28;10399095;28;20056;-82
2021/11/27 10:29:59;;;;;;;10.95;8.43;;;;;;;3.61;100.00;95770.97;10400198;28;20048;-80
2021/11/27 10:35:05;;;;;;;9.88;7.55;;;;;;;3.69;100.00;95762.94;10396793;28;20044;-80
2021/11/27 10:40:12;;;;;;;11.90;8.95;;;;;;;3.84;100.00;95764.75;10395262;28;20480;-81
2021/11/27 10:45:19;;;;;;;11.25;8.55;;;;;;;3.94;100.00;95770.59;10381076;28;20060;-81
2021/11/27 10:50:25;;;;;;;8.50;6.93;;;;;;;3.91;100.00;95773.66;10400320;28;20045;-81
2021/11/27 10:55:30;;;;;;;8.18;6.60;;;;;;;3.89;100.00;95778.34;10383878;28;20320;-81
2021/11/27 11:00:38;;;;;;;8.00;6.68;;;;;;;3.77;100.00;95791.28;10414478;28;20051;-77
2021/11/27 11:05:41;;;;;;;8.80;6.32;;;;;;;3.68;100.00;95785.25;10428468;28;20080;-82
2021/11/27 11:10:47;;;;;;;7.50;6.35;;;;;;;3.64;100.00;95796.44;10393558;28;20046;-80
2021/11/27 11:15:50;;;;;;;7.68;6.20;;;;;;;3.61;100.00;95794.13;10373901;28;20426;-79
2021/11/27 11:20:54;;;;;;;6.75;5.93;;;;;;;3.53;100.00;95803.84;10396791;28;20045;-80
2021/11/27 11:26:09;;;;;;;7.82;6.10;;;;;;;3.49;100.00;95804.38;10396452;28;20049;-80
2021/11/27 11:31:15;;;;;;;7.07;5.65;;;;;;;3.43;100.00;95810.44;10398105;28;20049;-80
2021/11/27 11:36:20;;;;;;;7.70;6.28;;;;;;;3.42;100.00;95806.13;10397838;28;20053;-81
2021/11/27 11:41:29;;;;;;;6.90;5.90;;;;;;;3.38;100.00;95819.78;10397024;28;20049;-81
2021/11/27 11:46:32;;;;;;;6.63;5.70;;;;;;;3.39;100.00;95818.78;10389994;28;20049;-78
2021/11/27 11:51:46;;;;;;;5.82;4.72;;;;;;;3.40;100.00;95808.97;10394241;28;20064;-79
2021/11/27 11:57:03;;;;;;;6.32;4.57;;;;;;;3.43;100.00;95810.44;10394625;28;20053;-79
2021/11/27 12:02:14;;;;;;;6.32;4.38;;;;;;;3.51;100.00;95821.00;10396991;28;20517;-79
2021/11/27 12:07:47;;;;;;;5.28;4.50;;;;;;;3.66;100.00;95811.22;10379348;28;20054;-80
2021/11/27 12:13:32;;;;;;;4.75;4.20;;;;;;;3.79;100.00;95821.22;10395327;28;20052;-81
2021/11/27 12:18:35;;;;;;;4.97;3.92;;;;;;;3.91;100.00;95829.59;10394713;28;20057;-80
2021/11/27 12:23:42;;;;;;;5.40;4.20;;;;;;;4.06;100.00;95831.44;10378854;28;20045;-81
2021/11/27 12:29:13;;;;;;;4.03;3.30;;;;;;;4.15;100.00;95830.31;10400306;28;20429;-81
2021/11/27 12:34:39;;;;;;;3.92;3.25;;;;;;;4.18;100.00;95824.59;10387747;28;20105;-77
2021/11/27 12:39:43;;;;;;;51.80;34.35;;;;;;;4.19;100.00;95820.94;10417205;28;20062;-76
2021/11/27 12:44:50;;;;;;;5.97;4.28;;;;;;;4.16;100.00;95826.66;10376632;28;20045;-80
2021/11/27 12:49:55;;;;;;;6.75;3.97;;;;;;;4.18;100.00;95821.13;10367246;28;20064;-80
2021/11/27 12:55:19;;;;;;;8.75;6.22;;;;;;;4.21;100.00;95813.56;10364640;28;20132;-76
2021/11/27 13:00:27;;;;;;;2.35;1.85;;;;;;;4.34;100.00;95809.44;10368959;28;20045;-81
2021/11/27 13:05:32;;;;;;;1.58;1.40;;;;;;;4.49;100.00;95802.22;10404181;28;20050;-76
2021/11/27 13:10:41;;;;;;;6.10;5.53;;;;;;;4.66;100.00;95794.00;10415382;28;20053;-75
2021/11/27 13:15:46;;;;;;;3.75;2.58;;;;;;;4.67;100.00;95790.31;10401156;28;20081;-79
2021/11/27 13:20:54;;;;;;;2.75;2.13;;;;;;;4.75;100.00;95787.53;10383612;28;20487;-78
2021/11/27 13:25:57;;;;;;;23.88;11.48;;;;;;;4.99;100.00;95798.84;10376791;28;20485;-79
2021/11/27 13:31:07;;;;;;;5.75;4.00;;;;;;;5.00;100.00;95820.00;10357189;28;20064;-80
2021/11/27 13:36:24;;;;;;;1.70;1.30;;;;;;;4.92;100.00;95831.59;10368683;28;20049;-81
2021/11/27 13:41:27;;;;;;;4.07;2.30;;;;;;;4.87;100.00;95843.88;10360805;28;20056;-80
2021/11/27 13:46:32;;;;;;;0.80;0.80;;;;;;;4.64;100.00;95839.50;10367043;28;20046;-80
2021/11/27 13:51:35;;;;;;;2.15;1.80;;;;;;;4.56;100.00;95847.63;10366403;28;20038;-76
2021/11/27 13:56:38;;;;;;;2.10;1.65;;;;;;;4.49;100.00;95852.88;10393694;28;20046;-77
2021/11/27 14:01:43;;;;;;;2.15;1.77;;;;;;;4.39;100.00;95868.34;10359852;28;20049;-79
2021/11/27 14:06:59;;;;;;;3.67;2.78;;;;;;;4.25;100.00;95872.66;10354640;28;20089;-80
2021/11/27 14:12:02;;;;;;;4.00;2.90;;;;;;;4.20;100.00;95881.19;10357413;28;20393;-80
2021/11/27 14:17:12;;;;;;;2.28;2.08;;;;;;;3.99;100.00;95888.09;10357987;28;20069;-81
2021/11/27 14:22:15;;;;;;;4.45;3.60;;;;;;;3.90;100.00;95907.84;10356291;28;20045;-80
2021/11/27 14:27:18;;;;;;;20.40;17.40;;;;;;;3.86;100.00;95919.84;10353981;28;20156;-79
2021/11/27 14:32:22;;;;;;;11.70;10.50;;;;;;;3.81;100.00;95924.91;10359768;28;20422;-78
2021/11/27 14:37:30;;;;;;;3.78;3.40;;;;;;;3.72;100.00;95923.31;10363445;28;20057;-80
2021/11/27 14:42:33;;;;;;;3.75;3.30;;;;;;;3.64;100.00;95925.03;10397175;28;20048;-79
2021/11/27 14:47:44;;;;;;;7.22;4.82;;;;;;;3.49;100.00;95932.13;10401681;28;20041;-80
2021/11/27 14:52:52;;;;;;;7.70;5.22;;;;;;;3.47;100.00;95940.31;10377269;28;20497;-77
2021/11/27 14:57:56;;;;;;;4.90;3.63;;;;;;;3.48;100.00;95949.97;10392854;28;20053;-77
2021/11/27 15:03:00;;;;;;;6.63;4.20;;;;;;;3.52;100.00;95958.41;10395343;28;20078;-78
2021/11/27 15:08:04;;;;;;;5.82;4.13;;;;;;;3.47;100.00;95958.13;10399210;28;20041;-79
2021/11/27 15:13:07;;;;;;;5.88;4.38;;;;;;;3.42;100.00;95969.28;10395886;28;20046;-79
2021/11/27 15:18:12;;;;;;;4.63;3.47;;;;;;;3.41;100.00;95967.63;10396789;28;20413;-79
2021/11/27 15:23:16;;;;;;;5.88;4.45;;;;;;;3.41;100.00;95982.78;10397087;28;20037;-79
2021/11/27 15:28:19;;;;;;;5.10;3.83;;;;;;;3.36;100.00;95976.13;10399284;28;20069;-79
2021/11/27 15:33:23;;;;;;;6.40;4.20;;;;;;;3.37;100.00;95992.94;10372411;28;20057;-78
2021/11/27 15:38:27;;;;;;;41.25;31.73;;;;;;;3.36;100.00;95992.09;10378678;28;20054;-80
2021/11/27 15:43:30;;;;;;;8.77;6.13;;;;;;;3.33;100.00;95992.47;10366325;28;20077;-80
2021/11/27 15:48:35;;;;;;;7.63;5.65;;;;;;;3.26;100.00;95991.50;10349551;28;20482;-81
2021/11/27 15:53:40;;;;;;;7.55;5.57;;;;;;;3.20;100.00;95998.34;10372475;28;20041;-81
2021/11/27 15:58:46;;;;;;;9.00;4.80;;;;;;;3.17;100.00;95997.88;10369756;28;20129;-80
2021/11/27 16:03:51;;;;;;;9.05;5.13;;;;;;;3.15;100.00;95999.88;10361560;28;20048;-80
2021/11/27 16:08:54;;;;;;;7.80;5.78;;;;;;;3.08;100.00;95994.44;10370108;28;20061;-80
2021/11/27 16:13:57;;;;;;;11.77;7.38;;;;;;;3.03;100.00;95994.94;10358045;28;20128;-80
2021/11/27 16:19:03;;;;;;;7.03;4.90;;;;;;;3.00;100.00;96008.59;10362024;28;20041;-80
2021/11/27 16:24:06;;;;;;;7.85;6.13;;;;;;;2.96;100.00;96007.31;10366789;28;20060;-80
2021/11/27 16:29:09;;;;;;;10.13;7.80;;;;;;;2.98;100.00;96015.94;10377892;28;20495;-80
2021/11/27 16:34:16;;;;;;;6.35;5.03;;;;;;;2.89;100.00;96011.63;10372924;28;20037;-79
2021/11/27 16:39:19;;;;;;;7.15;6.28;;;;;;;2.78;100.00;96031.47;10395073;28;20053;-81
2021/11/27 16:44:23;;;;;;;9.43;7.03;;;;;;;2.71;100.00;96026.00;10424580;28;20025;-79
2021/11/27 16:49:27;;;;;;;7.10;5.70;;;;;;;2.64;100.00;96030.34;10424225;28;20049;-79
2021/11/27 16:54:31;;;;;;;7.70;6.07;;;;;;;2.46;100.00;96030.56;10395754;28;20049;-80
2021/11/27 16:59:34;;;;;;;6.07;5.30;;;;;;;2.33;100.00;96043.53;10391826;28;20059;-80
2021/11/27 17:04:39;;;;;;;6.93;5.30;;;;;;;2.22;100.00;96052.66;10390497;28;20490;-79
2021/11/27 17:09:42;;;;;;;7.60;5.63;;;;;;;2.21;100.00;96058.97;10388733;28;20314;-81
2021/11/27 17:14:46;;;;;;;8.82;6.68;;;;;;;2.18;100.00;96052.19;10401169;28;20557;-82
2021/11/27 17:19:50;;;;;;;8.45;5.75;;;;;;;2.13;100.00;96060.66;10398449;28;20124;-79
2021/11/27 17:24:53;;;;;;;10.30;6.95;;;;;;;2.14;100.00;96072.94;10396407;28;20041;-82
2021/11/27 17:29:56;;;;;;;16.88;11.15;;;;;;;2.17;100.00;96076.25;10389750;28;20427;-78
2021/11/27 17:35:01;;;;;;;70.85;30.25;;;;;;;2.18;100.00;96080.56;10392086;28;20057;-80
2021/11/27 17:40:07;;;;;;;15.05;9.77;;;;;;;2.19;100.00;96079.56;10367448;28;20521;-82
2021/11/27 17:45:12;;;;;;;15.38;9.65;;;;;;;2.14;100.00;96080.91;10366933;28;20124;-78
2021/11/27 17:50:17;;;;;;;14.13;9.75;;;;;;;2.10;100.00;96079.56;10373248;28;20049;-81
2021/11/27 17:55:22;;;;;;;14.65;8.45;;;;;;;2.06;100.00;96091.50;10361077;28;20534;-82
2021/11/27 18:00:26;;;;;;;13.50;8.85;;;;;;;1.98;100.00;96078.25;10377578;28;20065;-81
2021/11/27 18:05:30;;;;;;;12.30;7.38;;;;;;;1.89;100.00;96080.06;10367148;28;20038;-82
2021/11/27 18:10:34;;;;;;;12.02;8.95;;;;;;;1.86;100.00;96083.06;10348333;28;20052;-82
2021/11/27 18:15:38;;;;;;;13.05;9.55;;;;;;;1.82;100.00;96087.84;10374591;28;20060;-83
2021/11/27 18:20:51;;;;;;;12.88;8.93;;;;;;;1.71;100.00;96080.19;10362041;28;20042;-77
2021/11/27 18:26:14;;;;;;;13.18;8.82;;;;;;;1.65;100.00;96083.50;10376040;28;20034;-82
2021/11/27 18:31:17;;;;;;;12.32;8.57;;;;;;;1.54;100.00;96095.25;10368263;28;20064;-80
2021/11/27 18:36:22;;;;;;;11.50;8.45;;;;;;;1.53;100.00;96089.13;10366513;28;20479;-81
2021/11/27 18:41:27;;;;;;;10.85;8.25;;;;;;;1.53;100.00;96107.72;10393035;28;20342;-80
2021/11/27 18:46:30;;;;;;;11.07;8.38;;;;;;;1.52;100.00;96129.09;10398730;28;20042;-79
2021/11/27 18:51:36;;;;;;;12.93;8.93;;;;;;;1.48;100.00;96136.53;10404014;28;20046;-79
2021/11/27 18:56:44;;;;;;;14.20;9.80;;;;;;;1.50;100.00;96131.91;10405822;28;20042;-80
2021/11/27 19:01:49;;;;;;;22.23;14.30;;;;;;;1.48;100.00;96163.06;10403267;28;20053;-79
2021/11/27 19:06:54;;;;;;;23.13;13.25;;;;;;;1.43;100.00;96176.00;10406945;28;20056;-80
2021/11/27 19:11:57;;;;;;;15.55;9.75;;;;;;;1.41;100.00;96175.31;10386126;28;20140;-80
2021/11/27 19:17:00;;;;;;;15.00;10.50;;;;;;;1.35;100.00;96194.53;10401290;28;20482;-81
2021/11/27 19:22:04;;;;;;;14.85;10.77;;;;;;;1.31;100.00;96187.88;10409179;28;20068;-80
2021/11/27 19:27:07;;;;;;;12.40;9.43;;;;;;;1.29;100.00;96197.81;10409891;28;20045;-79
2021/11/27 19:32:13;;;;;;;11.88;8.85;;;;;;;1.35;100.00;96207.81;10420798;28;20330;-82
2021/11/27 19:37:18;;;;;;;11.57;9.43;;;;;;;1.38;100.00;96205.66;10427359;28;20735;-82
2021/11/27 19:42:21;;;;;;;13.48;9.65;;;;;;;1.35;100.00;96205.16;10378523;28;20125;-79
2021/11/27 19:47:24;;;;;;;10.75;8.60;;;;;;;1.38;100.00;96210.13;10371329;28;20030;-80
2021/11/27 19:52:28;;;;;;;14.07;9.90;;;;;;;1.40;100.00;96215.28;10372675;28;20034;-80
2021/11/27 19:57:31;;;;;;;10.30;8.10;;;;;;;1.38;100.00;96205.66;10379772;28;20049;-79
2021/11/27 20:02:35;;;;;;;11.00;7.93;;;;;;;1.38;100.00;96200.34;10385118;28;20049;-82
2021/11/27 20:07:42;;;;;;;10.90;7.85;;;;;;;1.42;100.00;96211.47;10386990;28;20095;-79
2021/11/27 20:12:45;;;;;;;8.95;7.18;;;;;;;1.46;100.00;96207.53;10390348;28;20574;-79
2021/11/27 20:17:48;;;;;;;9.25;7.57;;;;;;;1.51;100.00;96209.69;10389217;28;20419;-79
2021/11/27 20:22:54;;;;;;;10.23;7.95;;;;;;;1.55;100.00;96221.63;10381086;28;20049;-79
2021/11/27 20:27:57;;;;;;;9.27;7.60;;;;;;;1.60;100.00;96234.41;10385055;28;20059;-79
2021/11/27 20:32:59;;;;;;;14.40;10.38;;;;;;;1.62;100.00;96254.53;10387817;28;20034;-79
2021/11/27 20:38:05;;;;;;;21.00;14.05;;;;;;;1.65;100.00;96264.81;10388970;28;20053;-79
2021/11/27 20:43:08;;;;;;;22.35;14.73;;;;;;;1.68;100.00;96266.31;10383834;28;20050;-79
2021/11/27 20:48:11;;;;;;;17.02;11.68;;;;;;;1.66;100.00;96274.44;10379041;28;20100;-79
2021/11/27 20:53:16;;;;;;;14.02;10.98;;;;;;;1.68;100.00;96280.41;10383247;28;20045;-79
2021/11/27 20:58:19;;;;;;;13.57;10.10;;;;;;;1.69;100.00;96275.97;10369833;28;20046;-79
2021/11/27 21:03:22;;;;;;;12.38;9.85;;;;;;;1.71;100.00;96278.44;10372130;28;20057;-79
2021/11/27 21:08:26;;;;;;;14.55;9.82;;;;;;;1.67;100.00;96277.94;10378417;28;20048;-79
2021/11/27 21:13:29;;;;;;;13.68;9.20;;;;;;;1.65;100.00;96279.91;10393458;28;20048;-79
2021/11/27 21:18:33;;;;;;;13.80;9.88;;;;;;;1.64;100.00;96278.25;10410431;28;20065;-79
2021/11/27 21:23:37;;;;;;;17.25;12.38;;;;;;;1.59;100.00;96284.03;10412206;28;20136;-80
2021/11/27 21:28:40;;;;;;;15.15;11.20;;;;;;;1.54;100.00;96289.81;10389571;28;20622;-79
2021/11/27 21:33:44;;;;;;;16.13;11.63;;;;;;;1.54;100.00;96286.31;10389034;28;20044;-79
2021/11/27 21:38:48;;;;;;;16.48;13.40;;;;;;;1.54;100.00;96284.50;10400710;28;20112;-80
2021/11/27 21:43:52;;;;;;;20.08;15.95;;;;;;;1.53;100.00;96282.84;10425814;28;20129;-80
2021/11/27 21:48:55;;;;;;;16.10;12.23;;;;;;;1.51;100.00;96282.16;10440988;28;20052;-81
2021/11/27 21:53:59;;;;;;;15.10;11.15;;;;;;;1.51;100.00;96274.19;10439928;28;21111;-81
2021/11/27 21:59:04;;;;;;;13.07;9.52;;;;;;;1.49;100.00;96268.22;10411840;28;20033;-80
2021/11/27 22:04:07;;;;;;;14.07;10.65;;;;;;;1.44;100.00;96267.88;10388701;28;20479;-81
2021/11/27 22:09:12;;;;;;;12.45;9.88;;;;;;;1.38;100.00;96268.47;10410016;28;20128;-81
2021/11/27 22:14:15;;;;;;;13.75;10.35;;;;;;;1.30;100.00;96287.81;10410593;28;20515;-81
2021/11/27 22:19:21;;;;;;;13.07;9.55;;;;;;;1.24;100.00;96280.50;10442283;28;20337;-80
2021/11/27 22:24:25;;;;;;;15.55;12.25;;;;;;;1.19;100.00;96286.28;10415816;28;20433;-80
2021/11/27 22:29:28;;;;;;;14.25;10.85;;;;;;;1.17;100.00;96276.81;10401131;28;20049;-79
2021/11/27 22:34:31;;;;;;;16.55;12.25;;;;;;;1.10;100.00;96273.97;10405912;28;20059;-80
2021/11/27 22:39:37;;;;;;;12.98;9.75;;;;;;;1.02;100.00;96274.72;10410863;28;20049;-78
2021/11/27 22:44:40;;;;;;;14.65;10.82;;;;;;;0.83;100.00;96282.84;10403826;28;20045;-79
2021/11/27 22:49:44;;;;;;;12.15;8.82;;;;;;;0.72;100.00;96289.22;10409598;28;20056;-81
2021/11/27 22:54:49;;;;;;;12.45;9.73;;;;;;;0.52;100.00;96305.28;10410125;28;20045;-82
2021/11/27 22:59:52;;;;;;;16.35;11.07;;;;;;;0.52;100.00;96293.84;10405584;28;20045;-81
2021/11/27 23:04:55;;;;;;;13.73;10.13;;;;;;;0.46;100.00;96297.91;10403034;28;20167;-78
2021/11/27 23:10:00;;;;;;;13.00;11.02;;;;;;;0.39;100.00;96294.22;10407446;28;20047;-79
2021/11/27 23:15:04;;;;;;;13.45;11.15;;;;;;;0.34;100.00;96299.97;10406713;28;20116;-81
2021/11/27 23:20:19;;;;;;;12.15;10.45;;;;;;;0.30;100.00;96309.19;10407282;28;20053;-82
2021/11/27 23:25:23;;;;;;;14.68;10.68;;;;;;;0.23;100.00;96310.78;10402616;28;20052;-78